Togiak, Alaska
Current Conditions -  °F | °C
As of 12:36 PM on Sunday 23 Nov 2014 (Local Time) from PATG Reporting Station
Overcast Overcast  
Wind Chill: 28°   Ceiling: 5000
Heat Index: 34°   Visibility: 10mi
Dew Point: 28°   Wind: 7mph
Humidity: 81%   Direction: 10°N
Pressure: 29.33"   Gusts: NA
Location:  59.07°N, 160.39°W
Report Text: PATG 232136Z AUTO 01006KT 10SM OVC050 01/M02 A2933 RMK AO1
Loading
Personal Weather Stations






























Interactive Weather Map New forecast layout! Learn more

10-Day Weather Forecast

Advertisements
Track Severe Weather on mobile